createdAt,value
2019-05-11T00:01:09.298Z,9.70
2019-05-11T00:03:36.990Z,9.60
2019-05-11T00:06:04.738Z,9.60
2019-05-11T00:08:32.410Z,9.70
2019-05-11T00:11:00.073Z,9.70
2019-05-11T00:13:27.760Z,9.80
2019-05-11T00:15:55.427Z,9.80
2019-05-11T00:18:23.132Z,9.80
2019-05-11T00:20:50.879Z,9.80
2019-05-11T00:23:18.658Z,9.80
2019-05-11T00:25:46.306Z,9.80
2019-05-11T00:28:14.002Z,9.80
2019-05-11T00:30:41.751Z,9.80
2019-05-11T00:33:10.361Z,9.80
2019-05-11T00:35:38.058Z,9.80
2019-05-11T00:38:07.383Z,9.80
2019-05-11T00:40:35.119Z,9.80
2019-05-11T00:43:02.967Z,9.60
2019-05-11T00:45:30.651Z,9.70
2019-05-11T00:47:58.413Z,9.60
2019-05-11T00:50:38.666Z,9.70
2019-05-11T00:52:56.455Z,9.70
2019-05-11T00:55:24.126Z,9.70
2019-05-11T00:57:51.818Z,9.70
2019-05-11T01:00:19.627Z,9.70
2019-05-11T01:02:47.319Z,9.70
2019-05-11T01:05:15.035Z,9.70
2019-05-11T01:07:42.841Z,9.70
2019-05-11T01:10:22.877Z,9.70
2019-05-11T01:12:40.044Z,9.70
2019-05-11T01:15:08.687Z,9.70
2019-05-11T01:17:36.442Z,9.70
2019-05-11T01:20:05.651Z,9.70
2019-05-11T01:22:33.335Z,9.70
2019-05-11T01:25:01.079Z,9.70
2019-05-11T01:27:28.758Z,9.70
2019-05-11T01:29:56.428Z,9.70
2019-05-11T01:32:24.106Z,9.70
2019-05-11T01:34:51.775Z,9.70
2019-05-11T01:37:19.465Z,9.70
2019-05-11T01:39:47.133Z,9.70
2019-05-11T01:42:14.822Z,9.60
2019-05-11T01:44:42.481Z,9.70
2019-05-11T01:47:10.153Z,9.60
2019-05-11T01:49:37.905Z,9.60
2019-05-11T01:52:05.578Z,9.50
2019-05-11T01:54:33.251Z,9.50
2019-05-11T01:57:00.918Z,9.50
2019-05-11T01:59:28.595Z,9.50
2019-05-11T02:01:56.202Z,9.50
2019-05-11T02:04:23.846Z,9.60
2019-05-11T02:06:51.484Z,9.60
2019-05-11T02:09:19.132Z,9.70
2019-05-11T02:11:46.767Z,9.60
2019-05-11T02:14:14.415Z,9.60
2019-05-11T02:16:42.084Z,9.70
2019-05-11T02:19:09.792Z,9.60
2019-05-11T02:21:37.441Z,9.60
2019-05-11T02:24:05.127Z,9.60
2019-05-11T02:26:32.774Z,9.60
2019-05-11T02:29:00.423Z,9.60
2019-05-11T02:31:28.068Z,9.60
2019-05-11T02:33:55.715Z,9.60
2019-05-11T02:36:23.359Z,9.50
2019-05-11T02:38:51.013Z,9.50
2019-05-11T02:41:34.788Z,9.50
2019-05-11T02:43:48.911Z,9.50
2019-05-11T02:46:17.087Z,9.50
2019-05-11T02:48:44.726Z,9.50
2019-05-11T02:51:12.364Z,9.50
2019-05-11T02:53:40.071Z,9.50
2019-05-11T02:56:07.695Z,9.60
2019-05-11T02:58:35.352Z,9.50
2019-05-11T03:01:02.982Z,9.40
2019-05-11T03:03:30.631Z,9.50
2019-05-11T03:05:58.256Z,9.50
2019-05-11T03:08:25.909Z,9.50
2019-05-11T03:10:53.552Z,9.60
2019-05-11T03:13:21.207Z,9.50
2019-05-11T03:15:48.848Z,9.50
2019-05-11T03:18:16.537Z,9.50
2019-05-11T03:20:44.201Z,9.50
2019-05-11T03:23:11.846Z,9.60
2019-05-11T03:25:39.525Z,9.60
2019-05-11T03:28:07.195Z,9.60
2019-05-11T03:30:34.856Z,9.60
2019-05-11T03:33:02.569Z,9.60
2019-05-11T03:35:30.298Z,9.60
2019-05-11T03:37:57.985Z,9.50
2019-05-11T03:40:25.628Z,9.50
2019-05-11T03:42:54.264Z,9.60
2019-05-11T03:45:21.908Z,9.50
2019-05-11T03:47:49.554Z,9.40
2019-05-11T03:50:17.300Z,9.40
2019-05-11T03:52:44.995Z,9.50
2019-05-11T03:55:12.706Z,9.50
2019-05-11T03:57:40.331Z,9.50
2019-05-11T04:00:08.250Z,9.50
2019-05-11T04:02:35.877Z,9.50
2019-05-11T04:05:04.503Z,9.50
2019-05-11T04:07:32.153Z,9.50
2019-05-11T04:09:59.796Z,9.50
2019-05-11T04:12:34.952Z,9.60
2019-05-11T04:14:56.799Z,9.60
2019-05-11T04:17:24.435Z,9.60
2019-05-11T04:19:52.076Z,9.60
2019-05-11T04:22:19.717Z,9.60
2019-05-11T04:24:47.377Z,9.50
2019-05-11T04:27:19.381Z,9.50
2019-05-11T04:29:44.381Z,9.50
2019-05-11T04:32:13.957Z,9.50
2019-05-11T04:34:41.675Z,9.50
2019-05-11T04:37:09.307Z,9.50
2019-05-11T04:39:36.952Z,9.60
2019-05-11T04:42:04.605Z,9.60
2019-05-11T04:44:32.327Z,9.50
2019-05-11T04:46:59.969Z,9.60
2019-05-11T04:49:27.636Z,9.50
2019-05-11T04:51:55.263Z,9.60
2019-05-11T04:54:42.291Z,9.60
2019-05-11T04:57:09.943Z,9.60
2019-05-11T04:59:56.982Z,9.60
2019-05-11T05:02:27.193Z,9.60
2019-05-11T05:05:13.375Z,9.60
2019-05-11T05:07:47.625Z,9.60
2019-05-11T05:10:14.129Z,9.50
2019-05-11T05:12:40.731Z,9.50
2019-05-11T05:15:12.123Z,9.60
2019-05-11T05:17:59.138Z,9.60
2019-05-11T05:20:27.526Z,9.70
2019-05-11T05:22:56.052Z,9.70
2019-05-11T05:25:23.696Z,9.80
2019-05-11T05:27:51.336Z,9.80
2019-05-11T05:30:19.367Z,9.80
2019-05-11T05:33:06.389Z,9.90
2019-05-11T05:35:34.088Z,9.90
2019-05-11T05:38:21.103Z,9.90
2019-05-11T05:40:53.921Z,9.80
2019-05-11T05:43:40.959Z,9.90
2019-05-11T05:46:11.671Z,9.90
2019-05-11T05:48:39.320Z,9.90
2019-05-11T05:51:45.678Z,9.90
2019-05-11T05:54:13.362Z,10.00
2019-05-11T05:59:47.241Z,10.10
2019-05-11T06:02:34.258Z,10.20
2019-05-11T06:05:06.965Z,10.10
2019-05-11T06:07:53.983Z,10.00
2019-05-11T06:10:24.676Z,10.10
2019-05-11T06:12:52.327Z,10.20
2019-05-11T06:15:19.976Z,10.40
2019-05-11T06:17:47.635Z,10.40
2019-05-11T06:23:08.150Z,10.30
2019-05-11T06:25:39.733Z,10.40
2019-05-11T06:28:29.692Z,10.40
2019-05-11T06:30:57.360Z,10.40
2019-05-11T06:33:44.391Z,10.50
2019-05-11T06:36:12.039Z,10.50
2019-05-11T06:41:26.520Z,10.60
2019-05-11T06:44:01.751Z,10.70
2019-05-11T06:46:23.613Z,10.80
2019-05-11T06:48:51.312Z,10.80
2019-05-11T06:51:19.216Z,10.80
2019-05-11T06:53:46.892Z,10.80
2019-05-11T06:56:16.600Z,10.90
2019-05-11T06:58:45.559Z,10.80
2019-05-11T07:01:13.415Z,10.70
2019-05-11T07:03:41.055Z,10.80
2019-05-11T07:06:30.555Z,10.80
2019-05-11T07:08:57.453Z,10.70
2019-05-11T07:11:26.090Z,10.80
2019-05-11T07:16:23.186Z,10.90
2019-05-11T07:19:10.134Z,10.90
2019-05-11T07:21:37.784Z,10.90
2019-05-11T07:24:06.244Z,11.00
2019-05-11T07:29:04.803Z,11.10
2019-05-11T07:31:35.932Z,11.10
2019-05-11T07:34:03.860Z,11.20
2019-05-11T07:36:57.686Z,11.20
2019-05-11T07:44:59.044Z,11.40
2019-05-11T07:47:48.326Z,11.50
2019-05-11T07:50:18.193Z,11.60
2019-05-11T07:55:18.805Z,11.90
2019-05-11T07:58:05.071Z,12.10
2019-05-11T08:00:36.365Z,12.10
2019-05-11T08:03:02.199Z,12.30
2019-05-11T08:07:59.321Z,12.90
2019-05-11T08:10:28.193Z,13.00
2019-05-11T08:12:58.722Z,13.30
2019-05-11T08:15:28.216Z,13.60
2019-05-11T08:17:57.615Z,13.80
2019-05-11T08:22:52.396Z,14.00
2019-05-11T08:25:20.035Z,14.20
2019-05-11T08:27:48.457Z,14.10
2019-05-11T08:30:18.754Z,14.20
2019-05-11T08:35:14.207Z,14.60
2019-05-11T08:37:41.871Z,14.80
2019-05-11T08:40:09.679Z,14.80
2019-05-11T08:42:37.953Z,14.90
2019-05-11T08:45:18.892Z,14.80
2019-05-11T08:47:37.574Z,14.50
2019-05-11T08:50:08.731Z,14.70
2019-05-11T08:52:38.412Z,14.60
2019-05-11T08:55:08.203Z,14.40
2019-05-11T08:57:35.185Z,14.30
2019-05-11T09:00:02.819Z,14.10
2019-05-11T09:02:30.468Z,13.90
2019-05-11T09:04:58.887Z,13.80
2019-05-11T09:07:27.793Z,13.70
2019-05-11T09:09:55.632Z,13.60
2019-05-11T09:12:23.297Z,13.40
2019-05-11T09:14:50.951Z,13.50
2019-05-11T09:17:18.694Z,13.60
2019-05-11T09:19:48.060Z,13.70
2019-05-11T09:22:15.905Z,13.70
2019-05-11T09:24:43.602Z,13.80
2019-05-11T09:27:11.323Z,13.70
2019-05-11T09:29:39.003Z,13.60
2019-05-11T09:32:08.860Z,13.70
2019-05-11T09:34:37.795Z,13.70
2019-05-11T09:37:07.779Z,14.00
2019-05-11T09:39:34.992Z,14.30
2019-05-11T09:42:02.665Z,14.50
2019-05-11T09:44:30.353Z,14.80
2019-05-11T09:47:02.303Z,15.00
2019-05-11T09:49:43.418Z,15.10
2019-05-11T09:51:58.886Z,15.00
2019-05-11T09:54:28.972Z,14.80
2019-05-11T09:56:57.855Z,14.70
2019-05-11T09:59:28.004Z,14.70
2019-05-11T10:01:54.954Z,14.70
2019-05-11T10:04:22.600Z,14.90
2019-05-11T10:06:50.357Z,15.40
2019-05-11T10:09:18.727Z,16.00
2019-05-11T10:11:48.094Z,16.40
2019-05-11T10:14:15.913Z,16.00
2019-05-11T10:16:43.559Z,16.10
2019-05-11T10:19:11.239Z,16.40
2019-05-11T10:21:39.850Z,16.20
2019-05-11T10:24:08.499Z,16.30
2019-05-11T10:29:07.725Z,16.70
2019-05-11T10:31:34.792Z,16.60
2019-05-11T10:34:02.724Z,16.20
2019-05-11T10:36:30.363Z,15.70
2019-05-11T10:38:58.811Z,15.40
2019-05-11T10:41:28.519Z,15.20
2019-05-11T10:43:58.042Z,15.10
2019-05-11T10:46:25.433Z,15.30
2019-05-11T10:48:53.105Z,15.30
2019-05-11T10:51:20.756Z,15.10
2019-05-11T10:53:51.793Z,15.20
2019-05-11T10:56:18.079Z,15.40
2019-05-11T10:58:48.034Z,15.70
2019-05-11T11:01:15.220Z,16.20
2019-05-11T11:03:42.880Z,16.70
2019-05-11T11:06:10.513Z,16.60
2019-05-11T11:08:38.462Z,16.80
2019-05-11T11:11:08.119Z,16.50
2019-05-11T11:13:35.566Z,16.80
2019-05-11T11:16:03.272Z,17.30
2019-05-11T11:18:30.943Z,18.10
2019-05-11T11:20:58.578Z,18.50
2019-05-11T11:23:28.380Z,18.60
2019-05-11T11:25:55.593Z,18.80
2019-05-11T11:28:23.262Z,18.60
2019-05-11T11:30:50.906Z,18.90
2019-05-11T11:33:18.557Z,19.40
2019-05-11T11:35:47.714Z,19.20
2019-05-11T11:38:17.857Z,19.30
2019-05-11T11:40:44.870Z,19.30
2019-05-11T11:43:12.527Z,18.80
2019-05-11T11:48:08.662Z,20.00
2019-05-11T11:50:37.699Z,20.60
2019-05-11T11:53:05.639Z,20.00
2019-05-11T11:55:33.287Z,20.10
2019-05-11T11:58:00.935Z,19.30
2019-05-11T12:00:29.015Z,19.70
2019-05-11T12:02:57.986Z,20.60
2019-05-11T12:05:28.058Z,20.60
2019-05-11T12:07:55.221Z,21.30
2019-05-11T12:10:22.889Z,21.50
2019-05-11T12:12:50.526Z,21.80
2019-05-11T12:15:18.191Z,21.80
2019-05-11T12:17:48.077Z,20.20
2019-05-11T12:20:15.298Z,18.80
2019-05-11T12:22:42.941Z,18.50
2019-05-11T12:25:10.657Z,17.80
2019-05-11T12:30:09.416Z,17.10
2019-05-11T12:32:44.354Z,17.50
2019-05-11T12:35:12.174Z,17.60
2019-05-11T12:37:39.866Z,17.70
2019-05-11T12:40:08.541Z,17.30
2019-05-11T12:42:38.079Z,16.40
2019-05-11T12:45:09.503Z,15.60
2019-05-11T12:47:38.516Z,15.60
2019-05-11T12:50:07.960Z,15.60
2019-05-11T12:52:38.321Z,15.60
2019-05-11T12:55:08.679Z,15.40
2019-05-11T12:57:38.643Z,15.70
2019-05-11T13:00:08.470Z,15.70
2019-05-11T13:02:38.581Z,15.60
2019-05-11T13:05:08.480Z,15.40
2019-05-11T13:07:35.824Z,16.10
2019-05-11T13:10:04.679Z,16.40
2019-05-11T13:14:59.838Z,17.00
2019-05-11T13:17:37.029Z,16.90
2019-05-11T13:19:58.761Z,17.50
2019-05-11T13:22:28.846Z,17.70
2019-05-11T13:24:55.645Z,18.60
2019-05-11T13:27:23.309Z,18.40
2019-05-11T13:29:50.970Z,17.90
2019-05-11T13:32:18.822Z,17.60
2019-05-11T13:34:48.003Z,16.70
2019-05-11T13:37:15.767Z,17.00
2019-05-11T13:39:43.427Z,16.60
2019-05-11T13:42:11.063Z,16.50
2019-05-11T13:44:38.721Z,16.50
2019-05-11T13:47:08.419Z,16.30
2019-05-11T13:49:37.636Z,16.70
2019-05-11T13:52:08.649Z,16.20
2019-05-11T13:54:37.599Z,16.10
2019-05-11T13:57:05.290Z,15.80
2019-05-11T13:59:32.943Z,15.70
2019-05-11T14:02:00.583Z,16.00
2019-05-11T14:04:28.271Z,16.40
2019-05-11T14:06:55.969Z,16.30
2019-05-11T14:09:23.610Z,16.30
2019-05-11T14:11:51.265Z,16.50
2019-05-11T14:14:19.003Z,16.40
2019-05-11T14:16:48.497Z,16.10
2019-05-11T14:19:17.955Z,15.90
2019-05-11T14:21:45.363Z,16.10
2019-05-11T14:24:13.020Z,15.70
2019-05-11T14:26:40.673Z,16.00
2019-05-11T14:29:08.679Z,16.20
2019-05-11T14:31:38.606Z,15.70
2019-05-11T14:34:05.876Z,15.90
2019-05-11T14:36:33.613Z,15.80
2019-05-11T14:39:01.269Z,15.50
2019-05-11T14:41:28.941Z,15.20
2019-05-11T14:43:57.956Z,15.00
2019-05-11T14:46:27.769Z,14.90
2019-05-11T14:48:55.063Z,14.70
2019-05-11T14:51:22.714Z,14.60
2019-05-11T14:53:50.350Z,14.30
2019-05-11T14:56:19.061Z,14.40
2019-05-11T14:58:49.053Z,14.40
2019-05-11T15:01:18.397Z,14.70
2019-05-11T15:03:45.679Z,15.00
2019-05-11T15:06:13.335Z,14.70
2019-05-11T15:08:40.975Z,14.70
2019-05-11T15:11:08.631Z,14.60
2019-05-11T15:13:38.185Z,14.60
2019-05-11T15:16:07.909Z,14.70
2019-05-11T15:18:38.867Z,14.70
2019-05-11T15:21:04.678Z,15.20
2019-05-11T15:25:59.682Z,15.60
2019-05-11T15:28:28.550Z,16.00
2019-05-11T15:30:58.556Z,16.10
2019-05-11T15:33:27.775Z,16.20
2019-05-11T15:35:55.074Z,16.50
2019-05-11T15:38:22.723Z,16.30
2019-05-11T15:40:50.370Z,16.30
2019-05-11T15:43:18.120Z,16.20
2019-05-11T15:45:45.839Z,16.50
2019-05-11T15:48:13.580Z,16.10
2019-05-11T15:50:41.311Z,16.00
2019-05-11T15:53:08.961Z,15.50
2019-05-11T15:55:39.333Z,15.50
2019-05-11T15:58:05.958Z,15.40
2019-05-11T16:00:33.600Z,15.20
2019-05-11T16:03:01.254Z,15.00
2019-05-11T16:05:28.904Z,15.10
2019-05-11T16:07:58.833Z,15.20
2019-05-11T16:10:27.877Z,15.30
2019-05-11T16:12:55.350Z,15.40
2019-05-11T16:15:22.994Z,15.50
2019-05-11T16:17:50.653Z,15.30
2019-05-11T16:20:18.622Z,15.40
2019-05-11T16:22:48.042Z,15.50
2019-05-11T16:25:15.723Z,15.10
2019-05-11T16:27:43.368Z,15.20
2019-05-11T16:30:11.176Z,15.30
2019-05-11T16:32:38.827Z,15.30
2019-05-11T16:35:08.833Z,15.50
2019-05-11T16:37:37.962Z,15.70
2019-05-11T16:40:09.093Z,15.60
2019-05-11T16:42:38.764Z,15.40
2019-05-11T16:45:08.475Z,15.00
2019-05-11T16:47:36.278Z,15.00
2019-05-11T16:50:05.526Z,15.00
2019-05-11T16:52:33.197Z,14.90
2019-05-11T16:55:00.889Z,15.00
2019-05-11T16:57:28.539Z,14.80
2019-05-11T16:59:58.352Z,14.70
2019-05-11T17:02:27.404Z,14.60
2019-05-11T17:04:54.915Z,14.60
2019-05-11T17:07:22.572Z,14.70
2019-05-11T17:09:50.215Z,14.70
2019-05-11T17:12:18.127Z,14.70
2019-05-11T17:15:00.702Z,14.70
2019-05-11T17:17:28.477Z,14.70
2019-05-11T17:19:58.773Z,14.70
2019-05-11T17:22:28.054Z,14.70
2019-05-11T17:24:54.911Z,14.70
2019-05-11T17:27:22.568Z,14.60
2019-05-11T17:29:50.195Z,14.50
2019-05-11T17:32:17.890Z,14.30
2019-05-11T17:34:47.652Z,14.20
2019-05-11T17:37:14.955Z,14.20
2019-05-11T17:39:42.563Z,14.20
2019-05-11T17:42:10.200Z,14.00
2019-05-11T17:44:38.599Z,14.00
2019-05-11T17:47:08.318Z,13.80
2019-05-11T17:49:37.807Z,13.80
2019-05-11T17:52:05.090Z,13.80
2019-05-11T17:54:32.736Z,13.80
2019-05-11T17:57:00.415Z,13.70
2019-05-11T17:59:28.328Z,13.60
2019-05-11T18:01:58.078Z,13.50
2019-05-11T18:04:25.477Z,13.30
2019-05-11T18:06:53.119Z,13.30
2019-05-11T18:09:20.782Z,13.30
2019-05-11T18:11:48.429Z,13.30
2019-05-11T18:14:16.071Z,13.10
2019-05-11T18:16:43.715Z,13.10
2019-05-11T18:19:11.369Z,13.00
2019-05-11T18:21:39.039Z,13.00
2019-05-11T18:24:08.879Z,12.80
2019-05-11T18:26:38.133Z,12.80
2019-05-11T18:29:05.586Z,12.80
2019-05-11T18:31:33.231Z,12.60
2019-05-11T18:34:00.902Z,12.60
2019-05-11T18:36:28.998Z,12.60
2019-05-11T18:38:56.671Z,12.50
2019-05-11T18:41:24.307Z,12.40
2019-05-11T18:43:51.952Z,12.30
2019-05-11T18:46:19.775Z,12.30
2019-05-11T18:48:48.651Z,12.30
2019-05-11T18:51:16.448Z,12.20
2019-05-11T18:53:44.104Z,12.10
2019-05-11T18:56:11.737Z,12.00
2019-05-11T18:58:39.383Z,11.90
2019-05-11T19:01:07.020Z,11.80
2019-05-11T19:03:34.650Z,11.80
2019-05-11T19:06:02.300Z,11.70
2019-05-11T19:08:29.939Z,11.60
2019-05-11T19:10:57.990Z,11.50
2019-05-11T19:13:27.915Z,11.30
2019-05-11T19:15:55.199Z,11.30
2019-05-11T19:18:22.847Z,11.30
2019-05-11T19:25:48.059Z,11.00
2019-05-11T19:28:15.851Z,11.10
2019-05-11T19:30:43.502Z,11.00
2019-05-11T19:33:11.395Z,10.90
2019-05-11T19:35:39.063Z,10.90
2019-05-11T19:38:08.631Z,10.80
2019-05-11T19:40:38.327Z,10.80
2019-05-11T19:43:07.685Z,10.70
2019-05-11T19:45:34.832Z,10.70
2019-05-11T19:48:02.479Z,10.70
2019-05-11T19:50:30.135Z,10.60
2019-05-11T19:52:58.089Z,10.50
2019-05-11T19:55:28.348Z,10.50
2019-05-11T20:00:22.527Z,10.30
2019-05-11T20:02:50.179Z,10.40
2019-05-11T20:05:18.577Z,10.30
2019-05-11T20:07:48.650Z,10.30
2019-05-11T20:10:15.708Z,10.30
2019-05-11T20:12:43.419Z,10.30
2019-05-11T20:15:11.157Z,10.30
2019-05-11T20:17:39.294Z,10.10
2019-05-11T20:20:08.837Z,10.10
2019-05-11T20:22:38.866Z,10.10
2019-05-11T20:25:08.757Z,10.20
2019-05-11T20:27:35.847Z,10.10
2019-05-11T20:30:03.970Z,10.10
2019-05-11T20:32:31.611Z,10.20
2019-05-11T20:34:59.272Z,10.10
2019-05-11T20:37:28.787Z,10.00
2019-05-11T20:39:58.491Z,10.00
2019-05-11T20:42:26.560Z,10.00
2019-05-11T20:44:54.242Z,10.00
2019-05-11T20:47:22.007Z,9.90
2019-05-11T20:49:49.693Z,9.90
2019-05-11T20:52:17.911Z,9.80
2019-05-11T20:54:47.726Z,9.80
2019-05-11T20:57:15.067Z,9.80
2019-05-11T20:59:42.736Z,9.80
2019-05-11T21:02:10.385Z,9.70
2019-05-11T21:04:38.599Z,9.70
2019-05-11T21:07:08.361Z,9.70
2019-05-11T21:09:37.849Z,9.50
2019-05-11T21:12:05.092Z,9.60
2019-05-11T21:14:32.776Z,9.50
2019-05-11T21:17:00.493Z,9.50
2019-05-11T21:19:28.522Z,9.50
2019-05-11T21:21:58.732Z,9.50
2019-05-11T21:24:27.936Z,9.60
2019-05-11T21:26:55.008Z,9.60
2019-05-11T21:29:22.647Z,9.50
2019-05-11T21:31:50.306Z,9.50
2019-05-11T21:34:18.813Z,9.40
2019-05-11T21:36:48.398Z,9.30
2019-05-11T21:39:16.129Z,9.30
2019-05-11T21:41:43.822Z,9.40
2019-05-11T21:44:11.481Z,9.30
2019-05-11T21:46:39.138Z,9.30
2019-05-11T21:49:07.799Z,9.30
2019-05-11T21:51:37.973Z,9.30
2019-05-11T21:54:05.055Z,9.40
2019-05-11T21:56:32.707Z,9.30
2019-05-11T21:59:00.336Z,9.30
2019-05-11T22:01:28.340Z,9.30
2019-05-11T22:03:55.983Z,9.30
2019-05-11T22:06:23.742Z,9.30
2019-05-11T22:08:51.374Z,9.30
2019-05-11T22:11:19.033Z,9.20
2019-05-11T22:13:48.460Z,9.20
2019-05-11T22:16:16.265Z,9.10
2019-05-11T22:18:43.904Z,8.90
2019-05-11T22:21:11.575Z,8.80
2019-05-11T22:23:39.216Z,8.80
2019-05-11T22:26:07.721Z,8.90
2019-05-11T22:28:35.641Z,8.90
2019-05-11T22:31:03.355Z,8.80
2019-05-11T22:33:30.990Z,8.70
2019-05-11T22:35:58.874Z,8.70
2019-05-11T22:38:29.924Z,8.70
2019-05-11T22:40:58.140Z,8.70
2019-05-11T22:43:25.307Z,8.70
2019-05-11T22:45:53.118Z,8.70
2019-05-11T22:48:20.756Z,8.70
2019-05-11T22:50:50.540Z,8.70
2019-05-11T22:53:18.776Z,8.60
2019-05-11T22:55:48.551Z,8.70
2019-05-11T22:58:17.875Z,8.60
2019-05-11T23:00:45.534Z,8.60
2019-05-11T23:03:13.205Z,8.50
2019-05-11T23:05:41.626Z,8.50
2019-05-11T23:08:09.454Z,8.50
2019-05-11T23:10:38.709Z,8.40
2019-05-11T23:13:08.317Z,8.40
2019-05-11T23:15:40.038Z,8.40
2019-05-11T23:18:09.342Z,8.40
2019-05-11T23:20:38.732Z,8.40
2019-05-11T23:23:08.451Z,8.40
2019-05-11T23:25:35.724Z,8.30
2019-05-11T23:28:03.381Z,8.30
2019-05-11T23:30:31.086Z,8.30
2019-05-11T23:32:58.831Z,8.10
2019-05-11T23:35:28.396Z,8.10
2019-05-11T23:37:57.981Z,8.10
2019-05-11T23:42:52.623Z,8.00
2019-05-11T23:45:21.844Z,8.00
2019-05-11T23:47:49.500Z,8.00
2019-05-11T23:50:18.954Z,8.00
2019-05-11T23:52:48.808Z,8.00
2019-05-11T23:55:18.717Z,7.90
2019-05-11T23:57:45.445Z,7.90
